Accueil
METAR-TAF:

METAR-TAF

Aéroports :

Aéroport de Lydd

Lydd, Angleterre

latitude: 50-57N, longitude: 000-56E, altitude: 3 m

Observation

Le bulletin a été fait il y a 36 minutes, à 03:20 UTC
Vent 5 kt de nord/nord-ouest
Température 7°C
Humidité 93%
Pression 1029 hPa
Visibilité: 5000 m
brume

METAR: EGMD 230320Z AUTO 33005KT 5000 BR NCD 07/06 Q1029

Heure: 04:56 (03:56 UTC)

Prévision

Le bulletin a été fait il y a 2 heures et 1 minutes, à 01:55 UTC
Prévision valable du 23 à 03 UTC au 23 à 12 UTC
Vent 3 kt de direction variable
Visibilité 10 km ou plus
pas de nuages en-dessous de 1500 mètres et pas de cumulonimbus.
Probabilité 30%
du 23 à 03 UTC au 23 à 07 UTC
Visibilité: 8000 m
Evoluant progressivement
du 23 à 06 UTC au 23 à 09 UTC
Vent 12 kt de sud-ouest

TAF: EGMD 230155Z 2303/2312 VRB03KT CAVOK PROB30 2303/2307 8000 BECMG 2306/2309 23012KT

Observations et prévisions météorologiques de plus de 4000 aéroports (messages METAR et TAF).

Les stations disponibles sont représentées par des disques jaunes et rouges sur la carte.

Passer la souris dessus pour voir le nom de la station.

Cliquer dessus pour voir les observations et prévisions météorologiques.

Pour changer de carte: cliquez sur les boutons verts avec une croix noire pour zoomer, sur le bouton vert avec un tiret pour effectuer un zoom arrière, ou sur les flèches vertes pour les cartes adjacentes.


METAR-TAF: